Time;durP1;ratioP1;P1;durP2;ratioP2;P2;SDS_P1;SDS_P2;PMS_P1;PMS_P2;Temp;Humidity;BMP_temperature;BMP_pressure;BME280_temperature;BME280_humidity;BME280_pressure;Samples;Min_cycle;Max_cycle;Signal;HPM_P1;HPM_P2
2022/01/19 00:00:07;;;;;;;;;;;19.70;39.90;;;;;;5096880;28;19955;-65
2022/01/19 00:02:33;;;;;;;;;;;19.70;39.90;;;;;;5078370;28;20452;-64
2022/01/19 00:04:58;;;;;;;;;;;19.70;39.90;;;;;;5096662;28;19908;-65
2022/01/19 00:07:24;;;;;;;;;;;19.70;39.90;;;;;;5096750;28;20409;-65
2022/01/19 00:09:49;;;;;;;;;;;19.70;39.80;;;;;;5096491;28;20255;-65
2022/01/19 00:12:15;;;;;;;;;;;19.70;39.80;;;;;;5096350;28;19908;-64
2022/01/19 00:14:40;;;;;;;;;;;19.70;39.80;;;;;;5096394;28;19961;-65
2022/01/19 00:17:06;;;;;;;;;;;19.70;39.80;;;;;;5078098;28;20510;-64
2022/01/19 00:19:31;;;;;;;;;;;19.70;39.80;;;;;;5096348;28;20279;-64
2022/01/19 00:21:56;;;;;;;;;;;19.70;39.80;;;;;;5096238;28;19931;-64
2022/01/19 00:24:22;;;;;;;;;;;19.70;39.80;;;;;;5096221;28;19996;-64
2022/01/19 00:26:47;;;;;;;;;;;19.70;39.70;;;;;;5078001;28;19915;-65
2022/01/19 00:29:13;;;;;;;;;;;19.70;39.70;;;;;;5096101;28;19920;-65
2022/01/19 00:31:38;;;;;;;;;;;19.60;39.70;;;;;;5095996;28;19915;-64
2022/01/19 00:34:04;;;;;;;;;;;19.60;39.70;;;;;;5096016;28;20311;-64
2022/01/19 00:36:29;;;;;;;;;;;19.60;39.80;;;;;;5096180;28;19908;-64
2022/01/19 00:38:55;;;;;;;;;;;19.60;39.80;;;;;;5095785;28;20355;-64
2022/01/19 00:41:20;;;;;;;;;;;19.60;39.70;;;;;;5095866;28;19947;-64
2022/01/19 00:43:46;;;;;;;;;;;19.60;39.60;;;;;;5060917;28;20365;-64
2022/01/19 00:46:11;;;;;;;;;;;19.60;39.70;;;;;;5096199;28;20381;-64
2022/01/19 00:48:37;;;;;;;;;;;19.60;39.60;;;;;;5095759;28;19931;-64
2022/01/19 00:51:02;;;;;;;;;;;19.60;39.60;;;;;;5095918;28;19948;-65
2022/01/19 00:53:28;;;;;;;;;;;19.60;39.70;;;;;;5077476;28;19947;-65
2022/01/19 00:55:53;;;;;;;;;;;19.60;39.70;;;;;;5095425;28;19919;-64
2022/01/19 00:58:19;;;;;;;;;;;19.60;39.60;;;;;;5095271;28;20317;-64
2022/01/19 01:00:44;;;;;;;;;;;19.50;39.50;;;;;;5095763;28;19908;-64
2022/01/19 01:03:10;;;;;;;;;;;19.60;39.50;;;;;;5095486;28;19912;-65
2022/01/19 01:05:36;;;;;;;;;;;19.60;39.50;;;;;;5095646;28;19909;-66
2022/01/19 01:08:02;;;;;;;;;;;19.50;39.50;;;;;;5095603;28;20275;-65
2022/01/19 01:10:29;;;;;;;;;;;19.60;39.50;;;;;;5095292;28;19909;-64
2022/01/19 01:13:05;;;;;;;;;;;19.50;39.60;;;;;;5095162;28;19912;-64
2022/01/19 01:15:48;;;;;;;;;;;19.50;39.60;;;;;;5095540;28;19908;-64
2022/01/19 01:18:21;;;;;;;;;;;19.50;39.50;;;;;;5095133;28;20428;-65
2022/01/19 01:20:48;;;;;;;;;;;19.50;39.40;;;;;;5095109;28;19915;-64
2022/01/19 01:23:13;;;;;;;;;;;19.50;39.50;;;;;;5095117;28;20329;-64
2022/01/19 01:25:39;;;;;;;;;;;19.50;39.40;;;;;;5095017;28;19917;-65
2022/01/19 01:28:05;;;;;;;;;;;19.50;39.40;;;;;;5094972;28;19908;-64
2022/01/19 01:30:31;;;;;;;;;;;19.50;39.50;;;;;;5095205;28;19908;-65
2022/01/19 01:32:56;;;;;;;;;;;19.50;39.50;;;;;;5076780;28;19915;-65
2022/01/19 01:35:22;;;;;;;;;;;19.50;39.40;;;;;;5094819;28;20380;-64
2022/01/19 01:37:47;;;;;;;;;;;19.50;39.40;;;;;;5094729;28;19920;-64
2022/01/19 01:40:13;;;;;;;;;;;19.50;39.40;;;;;;5094889;28;19959;-65
2022/01/19 01:42:39;;;;;;;;;;;19.50;39.40;;;;;;5076460;28;19908;-65
2022/01/19 01:45:09;;;;;;;;;;;19.50;39.40;;;;;;5094661;28;19999;-64
2022/01/19 01:47:40;;;;;;;;;;;19.50;39.40;;;;;;5094584;28;19995;-65
2022/01/19 01:55:17;;;;;;;;;;;19.50;39.30;;;;;;5094510;28;20271;-64
2022/01/19 01:57:43;;;;;;;;;;;19.50;39.30;;;;;;5094019;28;19969;-64
2022/01/19 02:00:10;;;;;;;;;;;19.50;39.40;;;;;;5094397;28;19908;-64
2022/01/19 02:02:36;;;;;;;;;;;19.50;39.30;;;;;;5076131;28;19915;-64
2022/01/19 02:05:02;;;;;;;;;;;19.50;39.40;;;;;;5094515;28;19915;-64
2022/01/19 02:07:45;;;;;;;;;;;19.50;39.20;;;;;;5075583;28;19908;-64
2022/01/19 02:23:52;;;;;;;;;;;19.50;39.20;;;;;;5094040;28;19915;-65
2022/01/19 02:26:34;;;;;;;;;;;19.50;39.30;;;;;;5076523;28;19910;-65
2022/01/19 02:29:17;;;;;;;;;;;19.50;39.20;;;;;;5094163;28;19977;-65
2022/01/19 02:42:39;;;;;;;;;;;19.40;39.20;;;;;;5094086;28;20019;-65
2022/01/19 02:50:15;;;;;;;;;;;19.40;39.20;;;;;;5093669;28;19970;-65
2022/01/19 02:52:40;;;;;;;;;;;19.40;39.10;;;;;;5093538;28;20351;-65
2022/01/19 02:55:06;;;;;;;;;;;19.40;39.20;;;;;;5093720;28;19931;-65
2022/01/19 02:57:35;;;;;;;;;;;19.40;39.00;;;;;;5093302;28;19974;-64
2022/01/19 03:06:31;;;;;;;;;;;19.40;39.10;;;;;;5093820;28;19983;-65
2022/01/19 03:10:58;;;;;;;;;;;19.40;39.10;;;;;;5093708;28;19915;-65
2022/01/19 03:13:24;;;;;;;;;;;19.40;39.00;;;;;;5093598;28;19912;-65
2022/01/19 03:15:49;;;;;;;;;;;19.40;39.00;;;;;;5075432;28;19914;-64
2022/01/19 03:18:15;;;;;;;;;;;19.30;38.90;;;;;;5093253;28;19950;-64
2022/01/19 03:20:40;;;;;;;;;;;19.30;39.00;;;;;;5096401;28;19962;-65
2022/01/19 03:23:18;;;;;;;;;;;19.40;39.10;;;;;;5097384;28;19951;-65
2022/01/19 03:25:44;;;;;;;;;;;19.40;38.90;;;;;;5079222;28;19919;-65
2022/01/19 03:28:09;;;;;;;;;;;19.30;39.00;;;;;;5097260;28;20318;-65
2022/01/19 03:30:35;;;;;;;;;;;19.30;38.80;;;;;;5097387;28;19908;-65
2022/01/19 03:33:00;;;;;;;;;;;19.40;39.00;;;;;;5097507;28;19908;-65
2022/01/19 03:35:26;;;;;;;;;;;19.40;38.80;;;;;;5097148;28;19908;-65
2022/01/19 03:37:51;;;;;;;;;;;19.30;38.90;;;;;;5078830;28;19920;-65
2022/01/19 03:40:17;;;;;;;;;;;19.30;38.80;;;;;;5097038;28;19961;-65
2022/01/19 03:42:42;;;;;;;;;;;19.30;38.90;;;;;;5096964;28;19946;-64
2022/01/19 03:45:09;;;;;;;;;;;19.30;38.80;;;;;;5097162;28;19969;-65
2022/01/19 03:47:41;;;;;;;;;;;19.30;38.80;;;;;;5096923;28;19995;-65
2022/01/19 03:50:07;;;;;;;;;;;19.40;38.90;;;;;;5096934;28;19998;-65
2022/01/19 03:52:32;;;;;;;;;;;19.30;38.90;;;;;;5096744;28;20494;-65
2022/01/19 03:54:58;;;;;;;;;;;19.30;38.90;;;;;;5096993;28;19908;-64
2022/01/19 03:57:23;;;;;;;;;;;19.30;38.80;;;;;;5096425;28;19953;-65
2022/01/19 03:59:49;;;;;;;;;;;19.40;38.80;;;;;;5096695;28;19918;-65
2022/01/19 04:02:14;;;;;;;;;;;19.30;38.70;;;;;;5096635;28;19908;-64
2022/01/19 04:04:49;;;;;;;;;;;19.30;38.80;;;;;;5096892;28;19951;-65
2022/01/19 04:07:15;;;;;;;;;;;19.30;38.70;;;;;;5096484;28;20442;-65
2022/01/19 04:09:42;;;;;;;;;;;19.30;38.80;;;;;;5096397;28;20006;-64
2022/01/19 04:12:09;;;;;;;;;;;19.30;38.80;;;;;;5096406;28;19908;-64
2022/01/19 04:14:35;;;;;;;;;;;19.40;38.80;;;;;;5096542;28;19908;-64
2022/01/19 04:17:02;;;;;;;;;;;19.30;38.80;;;;;;5096382;28;19908;-64
2022/01/19 04:19:47;;;;;;;;;;;19.40;38.80;;;;;;5077955;28;20382;-64
2022/01/19 04:22:18;;;;;;;;;;;19.30;38.80;;;;;;5096261;28;20317;-65
2022/01/19 04:24:44;;;;;;;;;;;19.30;38.80;;;;;;5096226;28;19926;-65
2022/01/19 04:27:32;;;;;;;;;;;19.30;38.90;;;;;;5096220;28;19912;-64
2022/01/19 04:30:02;;;;;;;;;;;19.30;38.80;;;;;;5095147;28;20307;-65
2022/01/19 04:32:51;;;;;;;;;;;19.40;38.70;;;;;;5095973;28;20313;-64
2022/01/19 04:35:22;;;;;;;;;;;19.30;38.70;;;;;;5095987;28;20351;-63
2022/01/19 04:54:32;;;;;;;;;;;19.30;38.70;;;;;;5095677;28;19915;-65
2022/01/19 05:05:12;;;;;;;;;;;19.30;38.70;;;;;;5095640;28;19908;-64
2022/01/19 05:07:42;;;;;;;;;;;19.30;38.70;;;;;;5095405;28;19915;-64
2022/01/19 05:15:36;;;;;;;;;;;19.30;38.70;;;;;;5095293;28;19914;-65
2022/01/19 05:18:03;;;;;;;;;;;19.30;38.80;;;;;;5095137;28;19912;-65
2022/01/19 05:20:28;;;;;;;;;;;19.30;38.70;;;;;;5095309;28;19913;-64
2022/01/19 05:22:54;;;;;;;;;;;19.30;38.60;;;;;;5095284;28;19999;-64
2022/01/19 05:25:19;;;;;;;;;;;19.40;38.60;;;;;;5076942;28;19915;-64
2022/01/19 05:27:45;;;;;;;;;;;19.40;38.50;;;;;;5095195;28;19909;-64
2022/01/19 05:30:11;;;;;;;;;;;19.40;38.60;;;;;;5095235;28;20255;-65
2022/01/19 05:32:36;;;;;;;;;;;19.40;38.40;;;;;;5094786;28;19977;-65
2022/01/19 05:35:02;;;;;;;;;;;19.50;38.50;;;;;;5094856;28;20305;-64
2022/01/19 05:37:27;;;;;;;;;;;19.50;38.50;;;;;;5094969;28;20318;-65
2022/01/19 05:39:52;;;;;;;;;;;19.50;38.40;;;;;;5094915;28;19914;-64
2022/01/19 05:42:18;;;;;;;;;;;19.50;38.60;;;;;;5093946;28;20375;-64
2022/01/19 05:44:44;;;;;;;;;;;19.50;38.40;;;;;;5094591;28;19912;-64
2022/01/19 05:47:11;;;;;;;;;;;19.50;38.30;;;;;;5094645;28;20270;-65
2022/01/19 05:49:36;;;;;;;;;;;19.50;38.30;;;;;;5094448;28;19908;-64
2022/01/19 05:52:02;;;;;;;;;;;19.50;38.40;;;;;;5094536;28;19915;-65
2022/01/19 05:54:27;;;;;;;;;;;19.50;38.30;;;;;;5094411;28;19915;-64
2022/01/19 05:56:53;;;;;;;;;;;19.50;38.30;;;;;;5094721;28;19912;-64
2022/01/19 05:59:18;;;;;;;;;;;19.50;38.30;;;;;;5075980;28;20375;-64
2022/01/19 06:01:44;;;;;;;;;;;19.60;38.30;;;;;;5094347;28;19931;-65
2022/01/19 06:04:09;;;;;;;;;;;19.50;38.40;;;;;;5094221;28;19956;-64
2022/01/19 06:06:35;;;;;;;;;;;19.60;38.30;;;;;;5094216;28;19995;-64
2022/01/19 06:09:03;;;;;;;;;;;19.60;38.30;;;;;;5094230;28;19915;-65
2022/01/19 06:11:29;;;;;;;;;;;19.60;38.20;;;;;;5094071;28;20275;-64
2022/01/19 06:13:54;;;;;;;;;;;19.50;38.30;;;;;;5094173;28;19908;-65
2022/01/19 06:16:20;;;;;;;;;;;19.60;38.30;;;;;;5094128;28;19915;-64
2022/01/19 06:18:45;;;;;;;;;;;19.60;38.20;;;;;;5093891;28;19916;-64
2022/01/19 06:21:11;;;;;;;;;;;19.60;38.30;;;;;;5094023;28;19908;-65
2022/01/19 06:23:37;;;;;;;;;;;19.60;38.30;;;;;;5094039;28;20282;-63
2022/01/19 06:26:05;;;;;;;;;;;19.60;38.20;;;;;;5094002;28;20015;-65
2022/01/19 06:28:31;;;;;;;;;;;19.60;38.20;;;;;;5093797;28;19908;-65
2022/01/19 06:30:56;;;;;;;;;;;19.60;38.30;;;;;;5093888;28;19908;-65
2022/01/19 06:33:22;;;;;;;;;;;19.60;38.20;;;;;;5093767;28;19914;-64
2022/01/19 06:35:47;;;;;;;;;;;19.60;38.30;;;;;;5093854;28;20283;-65
2022/01/19 06:38:13;;;;;;;;;;;19.60;38.20;;;;;;5093944;28;19978;-64
2022/01/19 06:40:38;;;;;;;;;;;19.60;38.20;;;;;;5093941;28;19948;-65
2022/01/19 06:43:04;;;;;;;;;;;19.60;38.20;;;;;;5093751;28;19908;-65
2022/01/19 06:45:30;;;;;;;;;;;19.60;38.30;;;;;;5093562;28;20040;-65
2022/01/19 06:47:55;;;;;;;;;;;19.60;38.20;;;;;;5093590;28;19927;-64
2022/01/19 06:50:22;;;;;;;;;;;19.60;38.20;;;;;;5093779;28;19908;-65
2022/01/19 06:52:48;;;;;;;;;;;19.70;38.20;;;;;;5075323;28;19951;-64
2022/01/19 06:55:13;;;;;;;;;;;19.60;38.20;;;;;;5093768;28;19958;-65
2022/01/19 06:57:39;;;;;;;;;;;19.60;38.20;;;;;;5093383;28;20446;-65
2022/01/19 07:00:05;;;;;;;;;;;19.60;38.20;;;;;;5093554;28;19915;-65
2022/01/19 07:02:30;;;;;;;;;;;19.60;38.20;;;;;;5093842;28;19999;-64
2022/01/19 07:04:56;;;;;;;;;;;19.60;38.30;;;;;;5075915;28;20034;-66
2022/01/19 07:07:22;;;;;;;;;;;19.70;38.20;;;;;;5093655;28;20287;-64
2022/01/19 07:09:48;;;;;;;;;;;19.70;38.20;;;;;;5093217;28;20381;-65
2022/01/19 07:12:13;;;;;;;;;;;19.60;38.10;;;;;;5093587;28;19908;-65
2022/01/19 07:14:39;;;;;;;;;;;19.70;38.10;;;;;;5075200;28;19912;-65
2022/01/19 07:17:05;;;;;;;;;;;19.70;38.20;;;;;;5093228;28;19912;-64
2022/01/19 07:19:30;;;;;;;;;;;19.70;38.20;;;;;;5093490;28;19916;-65
2022/01/19 07:21:56;;;;;;;;;;;19.70;38.20;;;;;;5075117;28;20394;-65
2022/01/19 07:24:21;;;;;;;;;;;19.70;38.10;;;;;;5093276;28;19908;-65
2022/01/19 07:26:47;;;;;;;;;;;19.70;38.20;;;;;;5093015;28;19995;-64
2022/01/19 07:29:14;;;;;;;;;;;19.70;38.20;;;;;;5081621;28;20276;-65
2022/01/19 07:31:40;;;;;;;;;;;19.80;38.00;;;;;;5077349;28;19908;-65
2022/01/19 07:34:06;;;;;;;;;;;18.90;36.50;;;;;;5074674;28;20012;-66
2022/01/19 07:36:31;;;;;;;;;;;18.10;38.00;;;;;;5080809;28;19953;-66
2022/01/19 07:38:57;;;;;;;;;;;18.60;38.70;;;;;;5079452;28;20387;-66
2022/01/19 07:41:22;;;;;;;;;;;19.00;38.60;;;;;;5074540;28;20002;-66
2022/01/19 07:43:48;;;;;;;;;;;19.30;38.30;;;;;;5083683;28;19917;-67
2022/01/19 07:46:14;;;;;;;;;;;19.50;37.90;;;;;;5075793;28;19922;-64
2022/01/19 07:48:40;;;;;;;;;;;19.50;38.10;;;;;;5079134;28;19919;-66
2022/01/19 07:51:05;;;;;;;;;;;19.60;38.10;;;;;;5087948;28;19912;-67
2022/01/19 07:53:31;;;;;;;;;;;19.60;38.10;;;;;;5068133;28;19999;-67
2022/01/19 07:55:56;;;;;;;;;;;19.60;38.10;;;;;;5087202;28;19938;-67
2022/01/19 07:58:21;;;;;;;;;;;19.60;38.10;;;;;;5081326;28;19927;-67
2022/01/19 08:00:47;;;;;;;;;;;19.70;38.20;;;;;;5089085;28;19918;-68
2022/01/19 08:03:14;;;;;;;;;;;19.70;38.10;;;;;;5088655;28;19948;-68
2022/01/19 08:05:39;;;;;;;;;;;19.70;38.10;;;;;;5088967;28;19966;-68
2022/01/19 08:08:05;;;;;;;;;;;19.70;38.20;;;;;;5089964;28;19912;-67
2022/01/19 08:10:31;;;;;;;;;;;19.80;38.20;;;;;;5087136;28;20402;-66
2022/01/19 08:12:59;;;;;;;;;;;19.80;38.20;;;;;;5060091;28;19916;-67
2022/01/19 08:15:25;;;;;;;;;;;19.80;38.10;;;;;;5092899;28;20647;-67
2022/01/19 08:17:50;;;;;;;;;;;19.80;38.20;;;;;;5092127;28;20014;-67
2022/01/19 08:20:18;;;;;;;;;;;19.80;38.20;;;;;;5077483;28;19924;-66
2022/01/19 08:22:43;;;;;;;;;;;19.80;38.20;;;;;;5061751;28;19916;-66
2022/01/19 08:25:09;;;;;;;;;;;19.80;38.20;;;;;;5088992;28;19927;-67
2022/01/19 08:27:35;;;;;;;;;;;19.80;38.30;;;;;;5074161;28;20363;-67
2022/01/19 08:30:00;;;;;;;;;;;19.90;38.30;;;;;;5085198;28;20340;-67
2022/01/19 08:32:26;;;;;;;;;;;19.90;38.20;;;;;;5085908;28;19919;-65
2022/01/19 08:34:51;;;;;;;;;;;19.90;38.30;;;;;;5074839;28;19916;-64
2022/01/19 08:37:17;;;;;;;;;;;19.90;38.40;;;;;;5074448;28;19928;-69
2022/01/19 08:39:42;;;;;;;;;;;19.90;38.40;;;;;;5079531;28;19924;-67
2022/01/19 08:42:09;;;;;;;;;;;19.90;38.40;;;;;;5091201;28;19935;-67
2022/01/19 08:44:34;;;;;;;;;;;19.90;38.50;;;;;;5091842;28;19920;-67
2022/01/19 08:47:00;;;;;;;;;;;19.90;38.50;;;;;;5074664;28;19958;-67
2022/01/19 08:49:25;;;;;;;;;;;19.90;38.50;;;;;;5076292;28;19917;-67
2022/01/19 08:51:50;;;;;;;;;;;19.90;38.60;;;;;;5092289;28;19917;-67
2022/01/19 08:54:16;;;;;;;;;;;19.90;38.60;;;;;;5075632;28;19915;-66
2022/01/19 08:56:41;;;;;;;;;;;19.90;38.60;;;;;;5059734;28;19958;-66
2022/01/19 08:59:07;;;;;;;;;;;19.90;38.60;;;;;;5083903;28;19920;-66
2022/01/19 09:01:32;;;;;;;;;;;19.90;38.60;;;;;;5075292;28;20362;-65
2022/01/19 09:03:58;;;;;;;;;;;19.90;38.60;;;;;;5089467;28;20332;-65
2022/01/19 09:06:24;;;;;;;;;;;19.90;38.60;;;;;;5088306;28;20383;-67
2022/01/19 09:08:50;;;;;;;;;;;19.90;38.60;;;;;;5082796;28;19915;-66
2022/01/19 09:11:16;;;;;;;;;;;19.90;38.60;;;;;;5078048;28;19913;-66
2022/01/19 09:13:41;;;;;;;;;;;19.90;38.60;;;;;;5087385;28;19908;-65
2022/01/19 09:16:07;;;;;;;;;;;20.00;38.50;;;;;;5087755;28;19912;-66
2022/01/19 09:18:32;;;;;;;;;;;19.90;38.50;;;;;;5072559;28;19931;-66
2022/01/19 09:20:58;;;;;;;;;;;19.90;38.50;;;;;;5088369;28;19946;-66
2022/01/19 09:23:23;;;;;;;;;;;20.00;38.50;;;;;;5071425;28;19920;-68
2022/01/19 09:25:49;;;;;;;;;;;20.00;38.60;;;;;;5087356;28;19919;-66
2022/01/19 09:28:14;;;;;;;;;;;20.00;38.50;;;;;;5091026;28;19916;-64
2022/01/19 09:30:41;;;;;;;;;;;20.00;38.60;;;;;;5092368;28;19916;-67
2022/01/19 09:33:08;;;;;;;;;;;20.00;38.50;;;;;;5075143;28;19916;-67
2022/01/19 09:38:20;;;;;;;;;;;20.00;38.60;;;;;;5074093;28;19919;-64
2022/01/19 09:40:46;;;;;;;;;;;20.00;38.70;;;;;;5093125;28;19923;-65
2022/01/19 09:43:11;;;;;;;;;;;20.00;38.70;;;;;;5090785;28;19912;-65
2022/01/19 09:45:37;;;;;;;;;;;20.00;38.70;;;;;;5087284;28;19990;-65
2022/01/19 09:48:04;;;;;;;;;;;20.00;38.60;;;;;;5062418;28;19912;-67
2022/01/19 09:50:29;;;;;;;;;;;20.00;38.60;;;;;;5072921;28;19934;-67
2022/01/19 09:52:55;;;;;;;;;;;20.00;38.70;;;;;;5087696;28;19912;-68
2022/01/19 09:55:20;;;;;;;;;;;20.00;38.70;;;;;;5088982;28;19962;-67
2022/01/19 09:57:46;;;;;;;;;;;20.00;38.60;;;;;;5085771;28;21890;-66
2022/01/19 10:00:12;;;;;;;;;;;20.00;38.70;;;;;;5084264;28;20241;-67
2022/01/19 10:02:37;;;;;;;;;;;20.00;38.50;;;;;;5075170;28;20387;-66
2022/01/19 10:05:09;;;;;;;;;;;20.00;38.50;;;;;;5085430;28;20397;-66
2022/01/19 10:07:35;;;;;;;;;;;20.00;38.50;;;;;;5082552;28;19916;-66
2022/01/19 10:10:02;;;;;;;;;;;20.00;38.50;;;;;;5082651;28;19931;-66
2022/01/19 10:18:08;;;;;;;;;;;20.00;38.70;;;;;;5072683;28;19986;-66
2022/01/19 10:20:33;;;;;;;;;;;20.00;38.60;;;;;;5087569;28;19912;-67
2022/01/19 10:22:59;;;;;;;;;;;20.00;38.60;;;;;;5090908;28;19908;-66
2022/01/19 10:25:24;;;;;;;;;;;20.00;38.70;;;;;;5092430;28;19947;-67
2022/01/19 10:27:50;;;;;;;;;;;20.00;38.70;;;;;;5091919;28;19958;-67
2022/01/19 10:30:20;;;;;;;;;;;20.00;38.70;;;;;;5092340;28;20007;-66
2022/01/19 10:32:51;;;;;;;;;;;20.00;38.70;;;;;;5078772;28;19954;-67
2022/01/19 10:35:24;;;;;;;;;;;20.00;38.60;;;;;;5080738;28;20648;-66
2022/01/19 10:38:08;;;;;;;;;;;20.00;38.60;;;;;;5088096;28;20065;-67
2022/01/19 10:40:34;;;;;;;;;;;20.00;38.70;;;;;;5091474;28;19923;-68
2022/01/19 10:42:59;;;;;;;;;;;20.00;38.70;;;;;;5092693;28;19912;-66
2022/01/19 10:45:30;;;;;;;;;;;20.00;38.60;;;;;;5082137;28;20401;-66
2022/01/19 10:47:58;;;;;;;;;;;20.00;38.80;;;;;;5089574;28;19915;-67
2022/01/19 10:50:25;;;;;;;;;;;20.00;38.70;;;;;;5078329;28;20434;-67
2022/01/19 10:52:52;;;;;;;;;;;20.00;38.70;;;;;;5081191;28;19908;-66
2022/01/19 10:55:30;;;;;;;;;;;20.00;38.70;;;;;;5079577;28;19960;-66
2022/01/19 10:57:56;;;;;;;;;;;20.00;38.80;;;;;;5091184;28;19920;-66
2022/01/19 11:00:24;;;;;;;;;;;20.00;38.80;;;;;;5071911;28;19921;-67
2022/01/19 11:02:50;;;;;;;;;;;20.10;38.70;;;;;;5091118;28;19912;-67
2022/01/19 11:05:17;;;;;;;;;;;20.00;38.70;;;;;;5086336;28;19948;-67
2022/01/19 11:07:42;;;;;;;;;;;20.00;38.70;;;;;;5082838;28;20437;-67
2022/01/19 11:10:12;;;;;;;;;;;20.00;38.70;;;;;;5091378;28;19943;-67
2022/01/19 11:12:44;;;;;;;;;;;20.10;38.70;;;;;;5074726;28;19952;-67
2022/01/19 11:15:10;;;;;;;;;;;20.00;38.70;;;;;;5084799;28;20099;-67
2022/01/19 11:17:36;;;;;;;;;;;20.00;38.70;;;;;;5072288;28;19915;-68
2022/01/19 11:20:03;;;;;;;;;;;20.00;38.70;;;;;;5086373;28;19960;-67
2022/01/19 11:22:36;;;;;;;;;;;20.00;38.70;;;;;;5079672;28;20016;-67
2022/01/19 11:25:04;;;;;;;;;;;20.00;38.70;;;;;;5080330;28;19915;-66
2022/01/19 11:27:39;;;;;;;;;;;20.00;38.70;;;;;;5077124;28;19948;-66
2022/01/19 11:30:09;;;;;;;;;;;20.00;38.70;;;;;;5089085;28;19942;-68
2022/01/19 11:32:35;;;;;;;;;;;20.00;38.80;;;;;;5082619;28;19971;-68
2022/01/19 11:35:02;;;;;;;;;;;20.10;38.70;;;;;;5087676;28;20322;-68
2022/01/19 11:37:42;;;;;;;;;;;20.10;38.70;;;;;;5071036;28;19950;-67
2022/01/19 11:40:07;;;;;;;;;;;20.10;38.70;;;;;;5083418;28;19951;-66
2022/01/19 11:42:34;;;;;;;;;;;20.00;38.60;;;;;;5087222;28;19915;-66
2022/01/19 11:45:00;;;;;;;;;;;20.00;38.70;;;;;;5088819;28;19926;-67
2022/01/19 11:47:29;;;;;;;;;;;20.00;38.70;;;;;;5094355;28;19919;-66
2022/01/19 11:49:57;;;;;;;;;;;20.10;38.70;;;;;;5091127;28;19939;-67
2022/01/19 11:52:26;;;;;;;;;;;20.00;38.70;;;;;;5087170;28;20235;-66
2022/01/19 11:55:08;;;;;;;;;;;20.00;38.60;;;;;;5093520;28;19912;-65
2022/01/19 11:57:33;;;;;;;;;;;20.00;38.60;;;;;;5074077;28;19924;-67
2022/01/19 12:00:02;;;;;;;;;;;20.00;38.70;;;;;;5085752;28;19916;-68
2022/01/19 12:02:32;;;;;;;;;;;20.00;38.70;;;;;;5093949;28;19909;-66
2022/01/19 12:04:58;;;;;;;;;;;20.10;38.60;;;;;;5076718;28;19913;-68
2022/01/19 12:07:37;;;;;;;;;;;20.10;38.70;;;;;;5074728;28;20122;-67
2022/01/19 12:10:03;;;;;;;;;;;20.10;38.60;;;;;;5107906;28;19965;-67
2022/01/19 12:12:33;;;;;;;;;;;20.10;38.70;;;;;;5076775;28;20000;-64
2022/01/19 12:15:03;;;;;;;;;;;20.10;38.80;;;;;;5080296;28;19923;-65
2022/01/19 12:17:51;;;;;;;;;;;20.10;38.70;;;;;;5081752;28;19923;-66
2022/01/19 12:20:36;;;;;;;;;;;20.10;38.70;;;;;;5078025;28;20205;-65
2022/01/19 12:23:34;;;;;;;;;;;20.10;38.80;;;;;;5084289;28;20359;-65
2022/01/19 12:26:00;;;;;;;;;;;20.10;38.80;;;;;;5061513;28;19916;-64
2022/01/19 12:28:44;;;;;;;;;;;20.00;38.80;;;;;;5093253;28;19908;-64
2022/01/19 12:31:25;;;;;;;;;;;20.10;38.80;;;;;;5085386;28;19920;-66
2022/01/19 12:34:08;;;;;;;;;;;20.10;38.80;;;;;;5080137;28;19918;-65
2022/01/19 12:36:54;;;;;;;;;;;20.10;38.90;;;;;;5061274;28;19946;-66
2022/01/19 12:39:26;;;;;;;;;;;20.10;38.80;;;;;;5088424;28;19924;-65
2022/01/19 12:41:54;;;;;;;;;;;20.10;38.80;;;;;;5085293;28;19991;-65
2022/01/19 12:44:35;;;;;;;;;;;20.10;38.80;;;;;;5091300;28;19966;-67
2022/01/19 12:47:04;;;;;;;;;;;20.10;38.80;;;;;;5091987;28;19951;-65
2022/01/19 12:49:31;;;;;;;;;;;20.10;38.80;;;;;;5073000;28;19916;-66
2022/01/19 12:51:56;;;;;;;;;;;20.10;38.80;;;;;;5093149;28;20003;-66
2022/01/19 12:54:29;;;;;;;;;;;20.10;38.80;;;;;;5087416;28;20396;-64
2022/01/19 12:57:01;;;;;;;;;;;20.10;38.80;;;;;;5078047;28;19994;-64
2022/01/19 12:59:26;;;;;;;;;;;20.10;38.80;;;;;;5091827;28;19975;-64
2022/01/19 13:01:52;;;;;;;;;;;20.10;38.80;;;;;;5091791;28;19943;-65
2022/01/19 13:04:24;;;;;;;;;;;20.10;38.80;;;;;;5088443;28;19919;-65
2022/01/19 13:06:53;;;;;;;;;;;20.10;38.90;;;;;;5056906;28;19923;-65
2022/01/19 13:09:26;;;;;;;;;;;20.10;38.90;;;;;;5087435;28;19919;-65
2022/01/19 13:11:54;;;;;;;;;;;20.10;38.90;;;;;;5093488;28;19942;-65
2022/01/19 13:14:20;;;;;;;;;;;20.10;38.90;;;;;;5073473;28;19974;-65
2022/01/19 13:16:46;;;;;;;;;;;20.10;38.80;;;;;;5064541;28;19970;-64
2022/01/19 13:19:16;;;;;;;;;;;20.20;38.80;;;;;;5085915;28;19981;-65
2022/01/19 13:21:43;;;;;;;;;;;20.20;38.80;;;;;;5086677;28;20003;-64
2022/01/19 13:24:20;;;;;;;;;;;20.10;38.80;;;;;;5093541;28;19977;-65
2022/01/19 13:26:45;;;;;;;;;;;20.10;38.80;;;;;;5081880;28;19966;-64
2022/01/19 13:29:31;;;;;;;;;;;20.10;38.90;;;;;;5086324;28;19950;-64
2022/01/19 13:31:58;;;;;;;;;;;20.10;38.90;;;;;;5090929;28;20031;-64
2022/01/19 13:34:24;;;;;;;;;;;20.10;38.80;;;;;;5074022;28;19947;-65
2022/01/19 13:37:00;;;;;;;;;;;20.10;38.80;;;;;;5075369;28;20576;-65
2022/01/19 13:39:28;;;;;;;;;;;20.10;38.90;;;;;;5087533;28;19920;-63
2022/01/19 13:41:54;;;;;;;;;;;20.10;38.80;;;;;;5079379;28;20334;-64
2022/01/19 13:44:21;;;;;;;;;;;20.10;38.90;;;;;;5086938;28;19922;-64
2022/01/19 13:46:46;;;;;;;;;;;20.10;38.80;;;;;;5076855;28;19912;-64
2022/01/19 13:49:12;;;;;;;;;;;20.10;38.80;;;;;;5084537;28;19918;-64
2022/01/19 13:51:41;;;;;;;;;;;20.10;38.80;;;;;;5092947;28;20011;-66
2022/01/19 13:54:06;;;;;;;;;;;20.10;38.80;;;;;;5092508;28;19912;-64
2022/01/19 13:56:35;;;;;;;;;;;20.10;38.80;;;;;;5088892;28;19912;-65
2022/01/19 13:59:10;;;;;;;;;;;20.10;38.80;;;;;;5084058;28;20268;-66
2022/01/19 14:01:49;;;;;;;;;;;20.10;38.80;;;;;;5065499;28;19920;-65
2022/01/19 14:04:15;;;;;;;;;;;20.10;38.80;;;;;;5082915;28;20268;-65
2022/01/19 14:06:42;;;;;;;;;;;20.10;38.80;;;;;;5091318;28;20003;-65
2022/01/19 14:09:17;;;;;;;;;;;20.10;38.80;;;;;;5088843;28;20375;-65
2022/01/19 14:11:47;;;;;;;;;;;20.10;38.80;;;;;;5076881;28;19916;-65
2022/01/19 14:14:14;;;;;;;;;;;20.10;38.90;;;;;;5074773;28;19912;-65
2022/01/19 14:16:47;;;;;;;;;;;20.10;38.80;;;;;;5072448;28;19912;-65
2022/01/19 14:19:14;;;;;;;;;;;20.10;38.80;;;;;;5083615;28;19920;-64
2022/01/19 14:21:58;;;;;;;;;;;20.10;38.90;;;;;;5081708;28;20475;-64
2022/01/19 14:24:25;;;;;;;;;;;20.10;38.90;;;;;;5084671;28;19920;-64
2022/01/19 14:26:55;;;;;;;;;;;20.10;38.80;;;;;;5080238;28;20018;-64
2022/01/19 14:29:21;;;;;;;;;;;20.10;38.90;;;;;;5078053;28;21402;-63
2022/01/19 14:31:51;;;;;;;;;;;20.10;38.80;;;;;;5068656;28;19912;-65
2022/01/19 14:34:31;;;;;;;;;;;20.10;38.90;;;;;;5076860;28;19946;-65
2022/01/19 14:37:26;;;;;;;;;;;20.10;38.90;;;;;;5081943;28;19916;-61
2022/01/19 14:39:58;;;;;;;;;;;20.10;38.80;;;;;;5075459;28;19920;-64
2022/01/19 14:42:30;;;;;;;;;;;20.20;39.00;;;;;;5072359;28;19908;-64
2022/01/19 14:45:18;;;;;;;;;;;20.20;38.80;;;;;;5089559;28;20656;-64
2022/01/19 14:47:43;;;;;;;;;;;20.10;38.80;;;;;;5092345;28;19913;-64
2022/01/19 14:50:21;;;;;;;;;;;20.10;38.80;;;;;;5092676;28;19916;-65
2022/01/19 14:52:49;;;;;;;;;;;20.10;38.80;;;;;;5091692;28;20390;-64
2022/01/19 14:55:19;;;;;;;;;;;20.20;38.90;;;;;;5092694;28;20260;-64
2022/01/19 14:57:44;;;;;;;;;;;20.20;38.80;;;;;;5091702;28;20388;-63
2022/01/19 15:00:11;;;;;;;;;;;20.20;38.80;;;;;;5088860;28;19923;-65
2022/01/19 15:02:36;;;;;;;;;;;20.20;38.90;;;;;;5080125;28;19915;-64
2022/01/19 15:05:02;;;;;;;;;;;20.20;38.80;;;;;;5092350;28;19912;-66
2022/01/19 15:07:28;;;;;;;;;;;20.00;38.50;;;;;;5095492;28;19930;-65
2022/01/19 15:09:53;;;;;;;;;;;19.90;38.60;;;;;;5093121;28;19953;-65
2022/01/19 15:12:18;;;;;;;;;;;20.00;38.60;;;;;;5092148;28;20291;-65
2022/01/19 15:14:45;;;;;;;;;;;20.00;38.90;;;;;;5093266;28;19912;-65
2022/01/19 15:17:11;;;;;;;;;;;20.10;38.80;;;;;;5096604;28;19987;-65
2022/01/19 15:19:37;;;;;;;;;;;20.10;38.80;;;;;;5095910;28;20019;-66
2022/01/19 15:22:02;;;;;;;;;;;20.10;38.80;;;;;;5096057;28;20040;-65
2022/01/19 15:24:30;;;;;;;;;;;20.10;38.90;;;;;;5085464;28;19965;-65
2022/01/19 15:26:56;;;;;;;;;;;20.10;38.80;;;;;;5076936;28;19916;-66
2022/01/19 15:29:21;;;;;;;;;;;20.10;38.90;;;;;;5094052;28;19918;-65
2022/01/19 15:31:50;;;;;;;;;;;20.10;39.00;;;;;;5094106;28;20261;-66
2022/01/19 15:34:16;;;;;;;;;;;20.10;39.00;;;;;;5077522;28;20010;-66
2022/01/19 15:36:41;;;;;;;;;;;20.10;39.00;;;;;;5096027;28;19912;-65
2022/01/19 15:39:08;;;;;;;;;;;20.10;39.00;;;;;;5094664;28;19977;-64
2022/01/19 15:41:35;;;;;;;;;;;20.00;38.90;;;;;;5077610;28;20377;-65